createdAt,value
2023-02-02T00:00:24.333Z,2.80
2023-02-02T00:01:24.323Z,3.20
2023-02-02T00:02:24.373Z,3.60
2023-02-02T00:03:24.305Z,3.10
2023-02-02T00:04:24.285Z,3.50
2023-02-02T00:05:24.582Z,3.20
2023-02-02T00:06:24.256Z,3.10
2023-02-02T00:07:24.247Z,3.00
2023-02-02T00:08:24.242Z,3.10
2023-02-02T00:09:24.203Z,3.30
2023-02-02T00:10:24.216Z,3.00
2023-02-02T00:11:24.183Z,3.10
2023-02-02T00:12:24.172Z,3.10
2023-02-02T00:13:24.172Z,3.80
2023-02-02T00:14:24.153Z,4.20
2023-02-02T00:15:24.504Z,4.00
2023-02-02T00:16:24.175Z,3.50
2023-02-02T00:17:24.103Z,3.70
2023-02-02T00:18:24.126Z,3.50
2023-02-02T00:19:24.081Z,4.10
2023-02-02T00:20:24.077Z,3.70
2023-02-02T00:21:24.060Z,3.40
2023-02-02T00:22:24.047Z,3.30
2023-02-02T00:23:24.042Z,3.50
2023-02-02T00:24:24.041Z,3.60
2023-02-02T00:25:24.340Z,3.50
2023-02-02T00:26:24.001Z,3.90
2023-02-02T00:27:23.987Z,3.50
2023-02-02T00:28:23.983Z,5.00
2023-02-02T00:29:23.947Z,5.20
2023-02-02T00:30:23.984Z,4.00
2023-02-02T00:31:23.958Z,4.90
2023-02-02T00:32:23.920Z,5.30
2023-02-02T00:33:23.908Z,5.20
2023-02-02T00:34:23.904Z,5.60
2023-02-02T00:35:24.025Z,5.70
2023-02-02T00:36:23.872Z,6.30
2023-02-02T00:37:23.848Z,6.40
2023-02-02T00:38:23.856Z,6.80
2023-02-02T00:39:23.816Z,7.30
2023-02-02T00:40:23.809Z,7.50
2023-02-02T00:41:23.807Z,7.30
2023-02-02T00:42:23.787Z,7.30
2023-02-02T00:43:23.779Z,7.60
2023-02-02T00:44:23.777Z,7.40
2023-02-02T00:45:24.097Z,8.10
2023-02-02T00:46:23.749Z,8.00
2023-02-02T00:47:23.716Z,7.50
2023-02-02T00:48:23.726Z,7.20
2023-02-02T00:49:23.697Z,8.70
2023-02-02T00:50:23.690Z,8.20
2023-02-02T00:51:23.668Z,8.50
2023-02-02T00:52:23.665Z,8.50
2023-02-02T00:53:23.652Z,8.30
2023-02-02T00:54:23.636Z,8.00
2023-02-02T00:55:23.976Z,8.10
2023-02-02T00:56:23.605Z,8.00
2023-02-02T00:57:23.593Z,8.50
2023-02-02T00:58:23.596Z,9.20
2023-02-02T00:59:23.569Z,9.40
2023-02-02T01:00:23.542Z,8.80
2023-02-02T01:01:23.591Z,9.10
2023-02-02T01:02:23.558Z,8.50
2023-02-02T01:03:23.528Z,9.10
2023-02-02T01:04:23.514Z,8.80
2023-02-02T01:05:23.791Z,9.20
2023-02-02T01:06:23.474Z,9.20
2023-02-02T01:07:23.463Z,9.10
2023-02-02T01:08:23.459Z,11.80
2023-02-02T01:09:23.431Z,9.70
2023-02-02T01:10:23.424Z,9.30
2023-02-02T01:11:23.411Z,8.80
2023-02-02T01:12:23.400Z,8.80
2023-02-02T01:13:23.392Z,9.70
2023-02-02T01:14:23.375Z,8.20
2023-02-02T01:15:23.599Z,8.40
2023-02-02T01:16:23.448Z,9.40
2023-02-02T01:17:23.328Z,8.90
2023-02-02T01:18:23.350Z,8.60
2023-02-02T01:19:23.300Z,8.70
2023-02-02T01:20:23.293Z,8.00
2023-02-02T01:21:23.281Z,7.90
2023-02-02T01:22:23.265Z,7.80
2023-02-02T01:23:23.260Z,8.60
2023-02-02T01:24:23.247Z,8.30
2023-02-02T01:25:23.561Z,8.60
2023-02-02T01:26:23.248Z,8.10
2023-02-02T01:27:23.207Z,19.00
2023-02-02T01:28:23.195Z,9.00
2023-02-02T01:29:23.174Z,8.20
2023-02-02T01:30:23.175Z,9.20
2023-02-02T01:31:23.199Z,8.70
2023-02-02T01:32:23.148Z,8.50
2023-02-02T01:33:23.148Z,8.20
2023-02-02T01:34:23.127Z,9.60
2023-02-02T01:35:23.607Z,9.10
2023-02-02T01:36:23.086Z,9.30
2023-02-02T01:37:23.067Z,9.10
2023-02-02T01:38:23.084Z,9.00
2023-02-02T01:39:23.051Z,9.50
2023-02-02T01:40:23.033Z,8.80
2023-02-02T01:41:23.015Z,8.40
2023-02-02T01:42:23.011Z,9.50
2023-02-02T01:43:23.018Z,10.50
2023-02-02T01:44:22.988Z,8.80
2023-02-02T01:45:23.371Z,9.70
2023-02-02T01:46:22.953Z,9.50
2023-02-02T01:47:22.955Z,9.30
2023-02-02T01:48:22.931Z,10.70
2023-02-02T01:49:22.920Z,10.60
2023-02-02T01:50:22.911Z,9.70
2023-02-02T01:51:22.881Z,10.70
2023-02-02T01:52:22.879Z,11.30
2023-02-02T01:53:22.863Z,12.30
2023-02-02T01:54:22.864Z,11.30
2023-02-02T01:55:23.014Z,12.40
2023-02-02T01:56:22.831Z,15.60
2023-02-02T01:57:22.807Z,18.20
2023-02-02T01:58:22.812Z,11.80
2023-02-02T01:59:22.797Z,13.90
2023-02-02T02:00:22.769Z,14.40
2023-02-02T02:01:22.793Z,14.50
2023-02-02T02:02:22.812Z,15.60
2023-02-02T02:03:22.742Z,17.90
2023-02-02T02:04:22.727Z,20.10
2023-02-02T02:05:23.026Z,20.80
2023-02-02T02:06:22.715Z,18.70
2023-02-02T02:07:22.691Z,21.10
2023-02-02T02:08:22.677Z,23.60
2023-02-02T02:09:22.669Z,22.20
2023-02-02T02:10:22.636Z,27.10
2023-02-02T02:11:22.646Z,27.20
2023-02-02T02:12:22.622Z,24.50
2023-02-02T02:13:22.614Z,30.70
2023-02-02T02:14:22.607Z,28.30
2023-02-02T02:15:22.918Z,24.60
2023-02-02T02:16:22.575Z,29.40
2023-02-02T02:17:22.553Z,26.90
2023-02-02T02:18:22.536Z,31.20
2023-02-02T02:19:22.541Z,28.90
2023-02-02T02:20:22.516Z,33.20
2023-02-02T02:21:22.511Z,33.80
2023-02-02T02:22:22.482Z,30.90
2023-02-02T02:23:22.482Z,33.00
2023-02-02T02:24:22.473Z,31.90
2023-02-02T02:25:22.840Z,32.90
2023-02-02T02:26:22.446Z,38.80
2023-02-02T02:27:22.422Z,41.90
2023-02-02T02:28:22.403Z,41.90
2023-02-02T02:29:22.433Z,37.90
2023-02-02T02:30:22.381Z,44.50
2023-02-02T02:31:22.467Z,47.50
2023-02-02T02:32:22.360Z,50.70
2023-02-02T02:33:22.342Z,46.10
2023-02-02T02:34:22.352Z,47.50
2023-02-02T02:35:22.512Z,52.20
2023-02-02T02:36:22.307Z,51.20
2023-02-02T02:37:22.290Z,53.50
2023-02-02T02:38:22.283Z,51.90
2023-02-02T02:39:22.291Z,52.80
2023-02-02T02:40:22.254Z,56.30
2023-02-02T02:41:22.241Z,55.30
2023-02-02T02:42:22.227Z,62.30
2023-02-02T02:43:22.211Z,59.70
2023-02-02T02:44:22.218Z,56.80
2023-02-02T02:45:22.459Z,59.80
2023-02-02T02:46:22.231Z,58.40
2023-02-02T02:47:22.176Z,57.70
2023-02-02T02:48:22.148Z,57.10
2023-02-02T02:49:22.139Z,59.80
2023-02-02T02:50:22.124Z,59.50
2023-02-02T02:51:22.121Z,61.10
2023-02-02T02:52:22.100Z,59.30
2023-02-02T02:53:22.080Z,57.10
2023-02-02T02:54:22.080Z,62.10
2023-02-02T02:55:22.360Z,60.40
2023-02-02T02:56:22.059Z,59.00
2023-02-02T02:57:22.035Z,59.80
2023-02-02T02:58:22.016Z,60.80
2023-02-02T02:59:22.008Z,59.00
2023-02-02T03:00:21.998Z,60.30
2023-02-02T03:01:22.047Z,58.20
2023-02-02T03:02:22.003Z,58.00
2023-02-02T03:03:21.965Z,62.70
2023-02-02T03:04:21.953Z,56.20
2023-02-02T03:05:22.305Z,62.60
2023-02-02T03:06:21.924Z,64.40
2023-02-02T03:07:21.894Z,61.70
2023-02-02T03:08:21.899Z,63.90
2023-02-02T03:09:21.875Z,63.40
2023-02-02T03:10:21.861Z,67.10
2023-02-02T03:11:21.841Z,62.20
2023-02-02T03:12:21.835Z,65.70
2023-02-02T03:13:21.824Z,64.70
2023-02-02T03:14:21.833Z,61.90
2023-02-02T03:15:22.195Z,66.20
2023-02-02T03:16:21.782Z,71.30
2023-02-02T03:17:21.770Z,88.00
2023-02-02T03:18:21.750Z,70.30
2023-02-02T03:19:21.748Z,76.90
2023-02-02T03:20:21.728Z,81.30
2023-02-02T03:21:21.719Z,76.30
2023-02-02T03:22:21.712Z,69.30
2023-02-02T03:23:21.680Z,76.40
2023-02-02T03:24:21.681Z,85.80
2023-02-02T03:25:21.742Z,95.20
2023-02-02T03:26:21.721Z,84.70
2023-02-02T03:27:21.639Z,71.90
2023-02-02T03:28:21.629Z,116.10
2023-02-02T03:29:21.623Z,94.00
2023-02-02T03:30:21.609Z,101.30
2023-02-02T03:31:21.621Z,86.50
2023-02-02T03:32:21.588Z,98.40
2023-02-02T03:33:21.548Z,104.10
2023-02-02T03:34:21.565Z,95.00
2023-02-02T03:35:21.534Z,89.80
2023-02-02T03:36:21.519Z,98.10
2023-02-02T03:37:21.504Z,97.30
2023-02-02T03:38:21.574Z,84.80
2023-02-02T03:39:21.521Z,98.70
2023-02-02T03:40:21.480Z,80.00
2023-02-02T03:41:21.455Z,92.60
2023-02-02T03:42:21.446Z,81.50
2023-02-02T03:43:21.432Z,93.70
2023-02-02T03:44:21.426Z,92.40
2023-02-02T03:45:21.407Z,103.30
2023-02-02T03:46:21.428Z,103.60
2023-02-02T03:47:21.379Z,100.60
2023-02-02T03:48:21.376Z,119.70
2023-02-02T03:49:21.369Z,109.20
2023-02-02T03:50:21.343Z,86.50
2023-02-02T03:51:21.317Z,125.30
2023-02-02T03:52:21.314Z,110.40
2023-02-02T03:53:21.306Z,127.40
2023-02-02T03:54:21.298Z,117.80
2023-02-02T03:55:21.283Z,143.00
2023-02-02T03:56:21.263Z,115.70
2023-02-02T03:57:21.246Z,114.90
2023-02-02T03:58:21.248Z,120.50
2023-02-02T03:59:21.224Z,103.10
2023-02-02T04:00:21.216Z,104.60
2023-02-02T04:01:21.209Z,115.30
2023-02-02T04:02:21.183Z,105.80
2023-02-02T04:03:21.323Z,119.10
2023-02-02T04:04:21.168Z,107.80
2023-02-02T04:05:21.152Z,102.60
2023-02-02T04:06:21.132Z,190.90
2023-02-02T04:07:21.128Z,125.50
2023-02-02T04:08:21.109Z,138.90
2023-02-02T04:09:21.100Z,116.50
2023-02-02T04:10:21.096Z,119.60
2023-02-02T04:11:21.071Z,156.80
2023-02-02T04:12:21.050Z,171.90
2023-02-02T04:13:21.030Z,143.00
2023-02-02T04:14:21.042Z,177.20
2023-02-02T04:15:21.011Z,447.40
2023-02-02T04:16:21.131Z,192.00
2023-02-02T04:17:20.989Z,200.40
2023-02-02T04:18:20.978Z,165.10
2023-02-02T04:19:20.983Z,181.40
2023-02-02T04:20:20.961Z,180.20
2023-02-02T04:21:20.954Z,184.80
2023-02-02T04:22:20.940Z,187.50
2023-02-02T04:23:20.911Z,188.60
2023-02-02T04:24:20.921Z,196.30
2023-02-02T04:25:20.888Z,200.90
2023-02-02T04:26:20.902Z,179.70
2023-02-02T04:27:20.875Z,187.80
2023-02-02T04:28:20.852Z,189.50
2023-02-02T04:29:20.870Z,190.70
2023-02-02T04:30:20.820Z,196.00
2023-02-02T04:31:20.849Z,221.10
2023-02-02T04:32:20.813Z,199.10
2023-02-02T04:33:20.776Z,174.80
2023-02-02T04:34:20.794Z,187.00
2023-02-02T04:35:20.811Z,185.70
2023-02-02T04:36:20.765Z,200.20
2023-02-02T04:37:20.726Z,206.60
2023-02-02T04:38:20.743Z,265.50
2023-02-02T04:39:20.717Z,202.70
2023-02-02T04:40:20.696Z,179.40
2023-02-02T04:41:20.689Z,194.70
2023-02-02T04:42:20.674Z,183.90
2023-02-02T04:43:20.660Z,198.50
2023-02-02T04:44:20.653Z,212.40
2023-02-02T04:45:20.624Z,184.80
2023-02-02T04:46:20.629Z,215.50
2023-02-02T04:47:20.604Z,209.70
2023-02-02T04:48:20.595Z,200.70
2023-02-02T04:49:20.764Z,186.50
2023-02-02T04:50:20.563Z,218.10
2023-02-02T04:51:20.557Z,192.30
2023-02-02T04:52:20.543Z,184.10
2023-02-02T04:53:20.524Z,272.70
2023-02-02T04:54:20.532Z,236.40
2023-02-02T04:55:20.507Z,243.80
2023-02-02T04:56:20.508Z,254.30
2023-02-02T04:57:20.471Z,180.70
2023-02-02T04:58:20.467Z,185.10
2023-02-02T04:59:20.467Z,178.10
2023-02-02T05:00:20.442Z,261.90
2023-02-02T05:01:20.470Z,169.10
2023-02-02T05:02:20.415Z,480.40
2023-02-02T05:03:20.405Z,203.10
2023-02-02T05:04:20.437Z,224.00
2023-02-02T05:05:20.381Z,208.30
2023-02-02T05:06:20.373Z,191.50
2023-02-02T05:07:20.353Z,171.90
2023-02-02T05:08:20.339Z,196.40
2023-02-02T05:09:20.331Z,211.60
2023-02-02T05:10:20.322Z,354.50
2023-02-02T05:11:20.302Z,207.70
2023-02-02T05:12:20.289Z,203.70
2023-02-02T05:13:20.274Z,215.30
2023-02-02T05:14:20.281Z,196.60
2023-02-02T05:15:20.240Z,270.60
2023-02-02T05:16:20.289Z,261.70
2023-02-02T05:17:20.234Z,321.60
2023-02-02T05:18:20.214Z,209.40
2023-02-02T05:19:20.198Z,218.50
2023-02-02T05:20:20.190Z,204.80
2023-02-02T05:21:20.190Z,301.60
2023-02-02T05:22:20.161Z,216.00
2023-02-02T05:23:20.136Z,211.70
2023-02-02T05:24:20.144Z,212.30
2023-02-02T05:25:20.125Z,209.80
2023-02-02T05:26:20.155Z,213.30
2023-02-02T05:27:20.095Z,214.00
2023-02-02T05:28:20.077Z,197.30
2023-02-02T05:29:20.074Z,201.10
2023-02-02T05:30:20.046Z,200.20
2023-02-02T05:31:20.158Z,216.20
2023-02-02T05:32:20.042Z,195.60
2023-02-02T05:33:20.015Z,209.30
2023-02-02T05:34:20.014Z,205.10
2023-02-02T05:35:19.992Z,187.40
2023-02-02T05:36:19.985Z,183.60
2023-02-02T05:37:19.955Z,196.90
2023-02-02T05:38:19.944Z,181.00
2023-02-02T05:39:19.955Z,200.70
2023-02-02T05:40:19.924Z,184.60
2023-02-02T05:41:19.902Z,168.50
2023-02-02T05:42:19.896Z,153.20
2023-02-02T05:43:21.584Z,170.50
2023-02-02T05:44:19.898Z,153.70
2023-02-02T05:45:19.853Z,158.30
2023-02-02T05:46:19.912Z,175.10
2023-02-02T05:47:19.832Z,169.20
2023-02-02T05:48:19.830Z,182.50
2023-02-02T05:49:19.844Z,172.60
2023-02-02T05:50:19.837Z,318.90
2023-02-02T05:51:19.774Z,206.60
2023-02-02T05:52:19.770Z,170.40
2023-02-02T05:53:19.761Z,182.40
2023-02-02T05:54:19.788Z,150.50
2023-02-02T05:55:19.720Z,186.00
2023-02-02T05:56:19.725Z,177.10
2023-02-02T05:57:19.701Z,184.40
2023-02-02T05:58:19.709Z,195.70
2023-02-02T05:59:19.679Z,214.10
2023-02-02T06:00:19.668Z,208.00
2023-02-02T06:01:19.651Z,214.10
2023-02-02T06:02:19.652Z,222.00
2023-02-02T06:03:19.728Z,209.60
2023-02-02T06:04:19.628Z,207.90
2023-02-02T06:05:19.598Z,197.90
2023-02-02T06:06:19.587Z,213.60
2023-02-02T06:07:19.581Z,200.30
2023-02-02T06:08:19.569Z,207.00
2023-02-02T06:09:19.652Z,207.90
2023-02-02T06:10:19.555Z,217.10
2023-02-02T06:11:19.517Z,201.40
2023-02-02T06:12:19.520Z,187.50
2023-02-02T06:13:19.496Z,190.20
2023-02-02T06:14:19.504Z,199.60
2023-02-02T06:15:19.475Z,199.80
2023-02-02T06:16:19.465Z,235.00
2023-02-02T06:17:19.446Z,200.60
2023-02-02T06:18:19.425Z,191.20
2023-02-02T06:19:19.451Z,205.90
2023-02-02T06:20:22.216Z,198.90
2023-02-02T06:21:19.395Z,210.30
2023-02-02T06:22:19.383Z,198.90
2023-02-02T06:23:19.375Z,191.10
2023-02-02T06:24:19.387Z,214.60
2023-02-02T06:25:19.379Z,200.20
2023-02-02T06:26:19.409Z,165.50
2023-02-02T06:27:19.326Z,185.80
2023-02-02T06:28:19.303Z,159.60
2023-02-02T06:29:19.317Z,217.50
2023-02-02T06:30:19.292Z,258.00
2023-02-02T06:31:19.583Z,183.90
2023-02-02T06:32:19.256Z,161.80
2023-02-02T06:33:19.242Z,164.40
2023-02-02T06:34:19.241Z,158.40
2023-02-02T06:35:19.241Z,143.30
2023-02-02T06:36:19.233Z,145.70
2023-02-02T06:37:19.194Z,141.50
2023-02-02T06:38:19.185Z,136.10
2023-02-02T06:39:19.160Z,128.90
2023-02-02T06:40:19.164Z,115.90
2023-02-02T06:41:19.144Z,121.50
2023-02-02T06:42:21.561Z,126.10
2023-02-02T06:43:19.123Z,124.40
2023-02-02T06:44:19.106Z,134.80
2023-02-02T06:45:19.100Z,131.30
2023-02-02T06:46:19.136Z,130.70
2023-02-02T06:47:19.069Z,133.30
2023-02-02T06:48:19.045Z,120.80
2023-02-02T06:49:19.045Z,108.70
2023-02-02T06:50:19.040Z,123.80
2023-02-02T06:51:19.019Z,124.20
2023-02-02T06:52:19.001Z,166.20
2023-02-02T06:53:18.988Z,164.10
2023-02-02T06:54:18.983Z,147.00
2023-02-02T06:55:18.976Z,157.90
2023-02-02T06:56:18.944Z,143.10
2023-02-02T06:57:18.940Z,179.40
2023-02-02T06:58:18.922Z,155.80
2023-02-02T06:59:18.907Z,169.60
2023-02-02T07:00:20.450Z,172.60
2023-02-02T07:01:18.921Z,182.30
2023-02-02T07:02:18.968Z,185.40
2023-02-02T07:03:18.865Z,174.00
2023-02-02T07:04:18.837Z,211.00
2023-02-02T07:05:18.846Z,188.10
2023-02-02T07:06:18.828Z,183.20
2023-02-02T07:07:18.828Z,179.00
2023-02-02T07:08:18.785Z,215.20
2023-02-02T07:09:18.794Z,206.60
2023-02-02T07:11:14.206Z,198.40
2023-02-02T07:11:19.753Z,203.00
2023-02-02T07:12:18.734Z,216.50
2023-02-02T07:13:18.737Z,204.10
2023-02-02T07:14:18.710Z,214.80
2023-02-02T07:15:18.715Z,183.30
2023-02-02T07:16:18.712Z,205.80
2023-02-02T07:17:18.685Z,229.50
2023-02-02T07:18:18.657Z,204.00
2023-02-02T07:19:18.653Z,193.30
2023-02-02T07:20:18.643Z,205.20
2023-02-02T07:21:18.640Z,201.70
2023-02-02T07:22:18.603Z,210.10
2023-02-02T07:23:18.596Z,230.40
2023-02-02T07:24:18.588Z,193.00
2023-02-02T07:25:18.582Z,150.50
2023-02-02T07:26:18.562Z,167.50
2023-02-02T07:27:18.554Z,159.50
2023-02-02T07:28:18.571Z,201.00
2023-02-02T07:29:18.521Z,186.90
2023-02-02T07:30:18.528Z,238.80
2023-02-02T07:31:18.576Z,201.20
2023-02-02T07:32:18.483Z,228.60
2023-02-02T07:33:18.470Z,230.30
2023-02-02T07:34:18.450Z,179.40
2023-02-02T07:35:18.451Z,151.70
2023-02-02T07:36:18.426Z,221.30
2023-02-02T07:37:18.428Z,224.40
2023-02-02T07:38:18.400Z,250.00
2023-02-02T07:39:18.429Z,231.70
2023-02-02T07:40:18.433Z,292.80
2023-02-02T07:41:18.368Z,240.00
2023-02-02T07:42:18.349Z,314.10
2023-02-02T07:43:18.340Z,198.70
2023-02-02T07:44:18.319Z,229.50
2023-02-02T07:45:26.673Z,219.20
2023-02-02T07:46:19.339Z,215.50
2023-02-02T07:47:18.289Z,189.80
2023-02-02T07:48:18.272Z,209.60
2023-02-02T07:49:18.270Z,214.40
2023-02-02T07:50:18.257Z,227.80
2023-02-02T07:51:18.272Z,235.30
2023-02-02T07:52:18.222Z,235.60
2023-02-02T07:53:18.207Z,214.60
2023-02-02T07:54:18.199Z,199.20
2023-02-02T07:55:18.201Z,289.90
2023-02-02T07:56:18.168Z,195.30
2023-02-02T07:57:18.155Z,251.60
2023-02-02T07:58:18.146Z,310.80
2023-02-02T07:59:18.125Z,206.70
2023-02-02T08:00:18.136Z,207.20
2023-02-02T08:01:18.125Z,192.10
2023-02-02T08:02:18.096Z,222.50
2023-02-02T08:03:18.162Z,201.10
2023-02-02T08:04:18.061Z,194.50
2023-02-02T08:05:18.067Z,205.50
2023-02-02T08:06:18.041Z,213.50
2023-02-02T08:07:18.036Z,178.60
2023-02-02T08:08:18.003Z,194.30
2023-02-02T08:09:18.002Z,208.70
2023-02-02T08:10:17.995Z,200.80
2023-02-02T08:11:17.979Z,203.20
2023-02-02T08:12:17.953Z,148.90
2023-02-02T08:13:17.947Z,148.60
2023-02-02T08:14:17.935Z,173.10
2023-02-02T08:15:17.932Z,133.90
2023-02-02T08:16:17.942Z,167.90
2023-02-02T08:17:17.893Z,151.60
2023-02-02T08:18:17.871Z,163.10
2023-02-02T08:19:17.861Z,153.20
2023-02-02T08:20:17.879Z,125.00
2023-02-02T08:21:17.860Z,119.20
2023-02-02T08:22:20.180Z,164.60
2023-02-02T08:23:17.801Z,129.80
2023-02-02T08:24:17.801Z,173.40
2023-02-02T08:25:17.884Z,168.60
2023-02-02T08:26:17.920Z,171.70
2023-02-02T08:27:17.763Z,217.10
2023-02-02T08:28:17.739Z,184.90
2023-02-02T08:29:17.732Z,146.20
2023-02-02T08:30:17.712Z,191.10
2023-02-02T08:31:17.752Z,147.40
2023-02-02T08:32:17.681Z,129.00
2023-02-02T08:33:17.688Z,149.00
2023-02-02T08:34:17.657Z,177.90
2023-02-02T08:35:17.654Z,139.80
2023-02-02T08:36:17.655Z,175.20
2023-02-02T08:37:17.619Z,140.10
2023-02-02T08:38:17.608Z,168.80
2023-02-02T08:39:17.621Z,130.00
2023-02-02T08:40:17.639Z,170.70
2023-02-02T08:41:17.603Z,193.10
2023-02-02T08:42:17.556Z,139.60
2023-02-02T08:43:17.546Z,122.70
2023-02-02T08:44:17.525Z,152.20
2023-02-02T08:46:01.998Z,164.30
2023-02-02T08:46:18.904Z,223.30
2023-02-02T08:47:17.493Z,209.80
2023-02-02T08:48:17.467Z,241.50
2023-02-02T08:49:17.455Z,151.50
2023-02-02T08:50:17.447Z,135.90
2023-02-02T08:51:17.461Z,267.80
2023-02-02T08:52:17.438Z,211.20
2023-02-02T08:53:17.405Z,206.60
2023-02-02T08:54:17.421Z,171.30
2023-02-02T08:55:17.388Z,189.40
2023-02-02T08:56:17.376Z,205.50
2023-02-02T08:57:17.352Z,181.00
2023-02-02T08:58:17.349Z,266.90
2023-02-02T08:59:17.323Z,186.70
2023-02-02T09:00:17.313Z,229.50
2023-02-02T09:01:17.436Z,196.70
2023-02-02T09:02:17.324Z,161.90
2023-02-02T09:03:17.276Z,210.10
2023-02-02T09:04:17.261Z,195.00
2023-02-02T09:05:17.249Z,163.40
2023-02-02T09:06:17.262Z,163.50
2023-02-02T09:07:17.219Z,249.70
2023-02-02T09:08:17.279Z,229.60
2023-02-02T09:09:17.191Z,194.10
2023-02-02T09:10:17.180Z,211.00
2023-02-02T09:11:17.188Z,182.90
2023-02-02T09:12:17.150Z,145.60
2023-02-02T09:13:17.145Z,132.20
2023-02-02T09:14:17.127Z,173.40
2023-02-02T09:15:17.110Z,200.60
2023-02-02T09:16:17.142Z,194.90
2023-02-02T09:17:17.080Z,283.80
2023-02-02T09:18:17.063Z,247.50
2023-02-02T09:19:17.123Z,159.20
2023-02-02T09:20:18.563Z,166.10
2023-02-02T09:21:17.042Z,163.60
2023-02-02T09:22:17.018Z,234.70
2023-02-02T09:23:17.005Z,188.40
2023-02-02T09:24:16.989Z,200.20
2023-02-02T09:25:16.987Z,162.90
2023-02-02T09:26:17.054Z,160.40
2023-02-02T09:27:16.959Z,233.30
2023-02-02T09:28:16.926Z,168.10
2023-02-02T09:29:16.930Z,155.50
2023-02-02T09:30:16.932Z,118.00
2023-02-02T09:31:17.027Z,98.30
2023-02-02T09:32:16.905Z,133.40
2023-02-02T09:33:16.869Z,124.30
2023-02-02T09:34:16.852Z,132.50
2023-02-02T09:35:16.852Z,160.50
2023-02-02T09:36:16.961Z,107.20
2023-02-02T09:37:16.815Z,187.30
2023-02-02T09:38:16.797Z,151.20
2023-02-02T09:39:16.883Z,185.40
2023-02-02T09:40:16.770Z,221.10
2023-02-02T09:41:16.759Z,171.70
2023-02-02T09:42:16.768Z,191.90
2023-02-02T09:43:16.746Z,173.30
2023-02-02T09:44:16.715Z,152.80
2023-02-02T09:45:16.711Z,140.70
2023-02-02T09:46:16.815Z,137.20
2023-02-02T09:47:16.701Z,197.10
2023-02-02T09:48:16.660Z,142.20
2023-02-02T09:49:16.745Z,118.20
2023-02-02T09:50:16.641Z,153.60
2023-02-02T09:51:16.639Z,143.90
2023-02-02T09:52:16.614Z,107.80
2023-02-02T09:53:16.611Z,99.00
2023-02-02T09:54:16.579Z,150.90
2023-02-02T09:55:16.583Z,114.20
2023-02-02T09:56:16.549Z,152.20
2023-02-02T09:57:16.554Z,144.70
2023-02-02T09:58:16.532Z,82.90
2023-02-02T09:59:20.540Z,123.10
2023-02-02T10:00:17.500Z,150.10
2023-02-02T10:01:16.595Z,147.50
2023-02-02T10:02:16.478Z,147.90
2023-02-02T10:03:16.470Z,163.20
2023-02-02T10:04:16.467Z,135.30
2023-02-02T10:05:16.449Z,91.70
2023-02-02T10:06:16.418Z,162.00
2023-02-02T10:07:16.419Z,137.70
2023-02-02T10:08:23.063Z,147.80
2023-02-02T10:09:17.401Z,154.00
2023-02-02T10:10:17.740Z,168.80
2023-02-02T10:11:16.363Z,107.80
2023-02-02T10:12:16.371Z,174.20
2023-02-02T10:13:16.337Z,163.10
2023-02-02T10:14:16.306Z,185.70
2023-02-02T10:15:16.306Z,299.70
2023-02-02T10:16:16.308Z,349.60
2023-02-02T10:17:16.286Z,364.00
2023-02-02T10:18:16.340Z,458.30
2023-02-02T10:19:16.247Z,571.70
2023-02-02T10:20:16.226Z,564.20
2023-02-02T10:21:16.230Z,450.40
2023-02-02T10:22:16.224Z,433.40
2023-02-02T10:23:16.195Z,437.10
2023-02-02T10:24:16.176Z,418.00
2023-02-02T10:25:16.181Z,475.80
2023-02-02T10:26:16.154Z,411.30
2023-02-02T10:27:16.157Z,298.00
2023-02-02T10:28:16.125Z,235.60
2023-02-02T10:29:16.150Z,222.70
2023-02-02T10:30:16.097Z,238.80
2023-02-02T10:31:16.330Z,187.30
2023-02-02T10:32:16.115Z,283.90
2023-02-02T10:33:16.061Z,220.10
2023-02-02T10:34:16.055Z,276.90
2023-02-02T10:35:16.053Z,213.00
2023-02-02T10:36:16.035Z,421.30
2023-02-02T10:37:16.034Z,434.70
2023-02-02T10:38:16.013Z,452.80
2023-02-02T10:39:15.991Z,419.80
2023-02-02T10:40:15.978Z,342.40
2023-02-02T10:41:15.964Z,588.20
2023-02-02T10:42:15.972Z,574.30
2023-02-02T10:43:15.930Z,477.90
2023-02-02T10:44:15.929Z,342.10
2023-02-02T10:45:15.911Z,547.80
2023-02-02T10:46:15.919Z,605.20
2023-02-02T10:47:15.899Z,692.30
2023-02-02T10:48:15.874Z,535.90
2023-02-02T10:49:15.849Z,481.60
2023-02-02T10:50:15.904Z,549.40
2023-02-02T10:51:15.822Z,578.00
2023-02-02T10:52:15.858Z,678.00
2023-02-02T10:53:15.804Z,626.80
2023-02-02T10:54:15.804Z,540.90
2023-02-02T10:55:15.770Z,649.80
2023-02-02T10:56:15.770Z,538.40
2023-02-02T10:57:15.771Z,499.10
2023-02-02T10:58:15.741Z,476.80
2023-02-02T10:59:15.720Z,557.70
2023-02-02T11:00:15.725Z,507.40
2023-02-02T11:01:15.736Z,528.20
2023-02-02T11:02:20.961Z,569.80
2023-02-02T11:03:16.679Z,689.60
2023-02-02T11:04:15.802Z,592.90
2023-02-02T11:05:15.694Z,538.10
2023-02-02T11:06:15.633Z,560.00
2023-02-02T11:07:15.618Z,668.60
2023-02-02T11:08:15.630Z,592.10
2023-02-02T11:09:15.605Z,678.30
2023-02-02T11:10:15.589Z,463.50
2023-02-02T11:11:15.575Z,427.20
2023-02-02T11:12:15.568Z,432.30
2023-02-02T11:13:15.609Z,481.20
2023-02-02T11:14:15.548Z,461.80
2023-02-02T11:15:15.519Z,447.80
2023-02-02T11:16:15.580Z,305.00
2023-02-02T11:17:15.478Z,344.40
2023-02-02T11:18:15.499Z,353.00
2023-02-02T11:19:15.457Z,522.60
2023-02-02T11:20:15.503Z,412.30
2023-02-02T11:21:15.442Z,427.70
2023-02-02T11:22:15.428Z,393.50
2023-02-02T11:23:15.411Z,281.30
2023-02-02T11:24:15.398Z,480.50
2023-02-02T11:25:15.381Z,480.40
2023-02-02T11:26:15.371Z,318.30
2023-02-02T11:27:15.364Z,249.90
2023-02-02T11:28:15.344Z,328.50
2023-02-02T11:29:15.322Z,402.20
2023-02-02T11:30:15.320Z,556.30
2023-02-02T11:31:15.371Z,620.70
2023-02-02T11:32:15.284Z,497.10
2023-02-02T11:33:15.327Z,447.50
2023-02-02T11:34:15.264Z,675.90
2023-02-02T11:35:15.243Z,792.30
2023-02-02T11:36:15.235Z,687.80
2023-02-02T11:37:15.223Z,775.20
2023-02-02T11:38:15.204Z,834.40
2023-02-02T11:39:15.216Z,841.70
2023-02-02T11:40:15.183Z,853.20
2023-02-02T11:41:15.162Z,868.30
2023-02-02T11:42:15.152Z,857.60
2023-02-02T11:43:15.160Z,907.90
2023-02-02T11:44:15.140Z,923.10
2023-02-02T11:45:15.114Z,901.20
2023-02-02T11:46:15.122Z,878.10
2023-02-02T11:47:15.093Z,925.40
2023-02-02T11:48:15.069Z,831.70
2023-02-02T11:49:15.067Z,822.20
2023-02-02T11:50:15.095Z,999.90
2023-02-02T11:51:15.108Z,932.80
2023-02-02T11:52:15.024Z,999.90
2023-02-02T11:53:15.010Z,992.00
2023-02-02T11:54:15.009Z,943.00
2023-02-02T11:55:14.992Z,999.90
2023-02-02T11:56:14.976Z,999.90
2023-02-02T11:57:14.948Z,999.90
2023-02-02T11:58:14.944Z,999.90
2023-02-02T11:59:14.931Z,999.90
2023-02-02T12:00:14.908Z,999.90
2023-02-02T12:01:14.900Z,999.90
2023-02-02T12:02:14.935Z,999.90
2023-02-02T12:03:14.868Z,999.90
2023-02-02T12:04:14.919Z,999.90
2023-02-02T12:05:14.861Z,999.90
2023-02-02T12:06:14.836Z,999.90
2023-02-02T12:07:14.836Z,999.90
2023-02-02T12:08:14.819Z,999.90
2023-02-02T12:09:14.798Z,999.90
2023-02-02T12:10:14.788Z,999.90
2023-02-02T12:11:14.770Z,999.90
2023-02-02T12:12:14.766Z,999.90
2023-02-02T12:13:14.746Z,999.90
2023-02-02T12:14:14.737Z,999.90
2023-02-02T12:15:14.725Z,999.90
2023-02-02T12:16:14.736Z,999.90
2023-02-02T12:17:14.695Z,999.90
2023-02-02T12:18:14.688Z,999.90
2023-02-02T12:19:16.347Z,999.90
2023-02-02T12:20:17.359Z,999.90
2023-02-02T12:21:14.695Z,999.90
2023-02-02T12:22:14.629Z,999.90
2023-02-02T12:23:14.604Z,999.90
2023-02-02T12:24:14.626Z,999.90
2023-02-02T12:25:14.588Z,999.90
2023-02-02T12:26:14.587Z,999.90
2023-02-02T12:27:14.589Z,999.90
2023-02-02T12:28:14.554Z,999.90
2023-02-02T12:29:14.573Z,999.90
2023-02-02T12:30:14.541Z,999.90
2023-02-02T12:31:15.074Z,999.90
2023-02-02T12:32:14.493Z,999.90
2023-02-02T12:33:14.475Z,999.90
2023-02-02T12:34:14.503Z,999.90
2023-02-02T12:35:14.452Z,999.90
2023-02-02T12:36:14.454Z,999.90
2023-02-02T12:37:14.449Z,999.90
2023-02-02T12:38:14.417Z,999.90